createdAt,value
2023-03-06T00:00:34.197Z,46.70
2023-03-06T00:01:51.880Z,40.30
2023-03-06T00:02:54.743Z,38.20
2023-03-06T00:03:57.666Z,34.20
2023-03-06T00:05:00.938Z,38.40
2023-03-06T00:06:04.074Z,38.90
2023-03-06T00:07:07.111Z,38.40
2023-03-06T00:08:10.461Z,36.80
2023-03-06T00:09:13.362Z,43.10
2023-03-06T00:10:30.331Z,37.70
2023-03-06T00:11:33.268Z,41.30
2023-03-06T00:12:36.210Z,41.60
2023-03-06T00:13:39.022Z,43.20
2023-03-06T00:14:42.059Z,41.60
2023-03-06T00:15:45.697Z,37.50
2023-03-06T00:16:48.585Z,40.50
2023-03-06T00:17:52.166Z,44.10
2023-03-06T00:18:55.054Z,40.00
2023-03-06T00:19:57.888Z,40.20
2023-03-06T00:21:00.755Z,42.80
2023-03-06T00:22:03.735Z,44.30
2023-03-06T00:23:06.656Z,38.10
2023-03-06T00:24:09.593Z,39.50
2023-03-06T00:25:15.892Z,46.00
2023-03-06T00:26:19.097Z,41.50
2023-03-06T00:27:24.065Z,39.00
2023-03-06T00:28:27.286Z,38.70
2023-03-06T00:29:30.307Z,39.80
2023-03-06T00:30:33.538Z,40.90
2023-03-06T00:31:36.891Z,39.80
2023-03-06T00:32:39.947Z,37.80
2023-03-06T00:33:43.626Z,45.10
2023-03-06T00:34:49.970Z,42.20
2023-03-06T00:35:52.934Z,40.70
2023-03-06T00:36:55.831Z,44.30
2023-03-06T00:37:59.915Z,40.90
2023-03-06T00:39:02.850Z,41.40
2023-03-06T00:40:07.430Z,43.10
2023-03-06T00:41:11.746Z,42.70
2023-03-06T00:42:14.604Z,41.10
2023-03-06T00:43:17.462Z,38.20
2023-03-06T00:44:20.398Z,36.30
2023-03-06T00:45:23.472Z,38.40
2023-03-06T00:46:26.416Z,39.60
2023-03-06T00:47:29.293Z,40.10
2023-03-06T00:48:33.933Z,38.40
2023-03-06T00:49:36.865Z,41.00
2023-03-06T00:50:39.780Z,40.10
2023-03-06T00:51:42.698Z,39.10
2023-03-06T00:52:45.680Z,44.30
2023-03-06T00:53:48.938Z,43.20
2023-03-06T00:54:51.928Z,39.20
2023-03-06T00:55:54.817Z,40.60
2023-03-06T00:56:58.384Z,39.60
2023-03-06T00:58:01.334Z,43.90
2023-03-06T00:59:04.381Z,37.20
2023-03-06T01:00:08.520Z,40.30
2023-03-06T01:01:11.825Z,37.00
2023-03-06T01:02:14.762Z,42.90
2023-03-06T01:03:18.017Z,39.70
2023-03-06T01:04:21.374Z,40.20
2023-03-06T01:05:24.938Z,39.30
2023-03-06T01:06:27.960Z,42.30
2023-03-06T01:07:34.043Z,37.20
2023-03-06T01:08:36.944Z,38.10
2023-03-06T01:09:39.835Z,37.00
2023-03-06T01:10:42.812Z,37.50
2023-03-06T01:11:45.716Z,40.70
2023-03-06T01:12:48.628Z,45.40
2023-03-06T01:13:51.558Z,40.60
2023-03-06T01:14:56.241Z,38.20
2023-03-06T01:16:10.520Z,40.20
2023-03-06T01:17:13.469Z,39.70
2023-03-06T01:18:16.376Z,39.90
2023-03-06T01:19:19.393Z,39.20
2023-03-06T01:20:22.290Z,43.20
2023-03-06T01:21:25.876Z,39.00
2023-03-06T01:22:28.773Z,39.60
2023-03-06T01:23:32.324Z,38.80
2023-03-06T01:24:35.200Z,40.10
2023-03-06T01:25:38.075Z,37.10
2023-03-06T01:26:40.957Z,37.60
2023-03-06T01:27:43.820Z,40.60
2023-03-06T01:28:46.817Z,40.40
2023-03-06T01:29:49.641Z,37.70
2023-03-06T01:30:52.516Z,40.80
2023-03-06T01:31:55.434Z,43.20
2023-03-06T01:32:59.316Z,38.90
2023-03-06T01:34:02.398Z,41.20
2023-03-06T01:35:06.509Z,36.60
2023-03-06T01:36:12.193Z,37.70
2023-03-06T01:37:15.451Z,39.90
2023-03-06T01:38:18.314Z,37.50
2023-03-06T01:39:21.144Z,38.50
2023-03-06T01:40:24.090Z,37.90
2023-03-06T01:41:27.072Z,43.60
2023-03-06T01:42:32.026Z,40.60
2023-03-06T01:43:41.704Z,40.30
2023-03-06T01:45:08.536Z,38.20
2023-03-06T01:46:30.377Z,35.20
2023-03-06T01:47:33.316Z,42.10
2023-03-06T01:48:36.206Z,37.70
2023-03-06T01:49:41.559Z,38.10
2023-03-06T01:50:44.783Z,37.60
2023-03-06T01:51:50.281Z,37.60
2023-03-06T01:52:58.277Z,43.80
2023-03-06T01:54:05.313Z,37.10
2023-03-06T01:55:16.039Z,38.40
2023-03-06T01:56:19.601Z,36.50
2023-03-06T01:57:44.835Z,40.70
2023-03-06T01:58:49.656Z,39.20
2023-03-06T01:59:59.041Z,34.60
2023-03-06T02:01:02.124Z,51.90
2023-03-06T02:02:08.557Z,40.60
2023-03-06T02:03:18.478Z,38.60
2023-03-06T02:04:21.566Z,36.20
2023-03-06T02:05:24.714Z,33.10
2023-03-06T02:06:27.867Z,34.10
2023-03-06T02:07:31.719Z,35.50
2023-03-06T02:08:35.135Z,31.60
2023-03-06T02:09:38.826Z,32.20
2023-03-06T02:10:57.136Z,36.20
2023-03-06T02:12:08.408Z,37.10
2023-03-06T02:13:11.299Z,43.30
2023-03-06T02:14:18.483Z,34.90
2023-03-06T02:15:28.196Z,34.80
2023-03-06T02:17:36.108Z,30.30
2023-03-06T02:18:42.193Z,32.00
2023-03-06T02:20:03.869Z,39.80
2023-03-06T02:21:13.187Z,31.50
2023-03-06T02:22:17.700Z,35.90
2023-03-06T02:23:39.288Z,33.50
2023-03-06T02:25:17.803Z,40.30
2023-03-06T02:27:27.327Z,33.60
2023-03-06T02:28:31.421Z,34.50
2023-03-06T02:29:35.158Z,31.70
2023-03-06T02:30:39.911Z,35.20
2023-03-06T02:31:42.868Z,31.20
2023-03-06T02:32:45.764Z,37.10
2023-03-06T02:34:01.582Z,36.30
2023-03-06T02:35:07.228Z,31.90
2023-03-06T02:36:16.056Z,39.80
2023-03-06T02:37:19.722Z,34.50
2023-03-06T02:38:28.577Z,37.40
2023-03-06T02:39:34.181Z,36.10
2023-03-06T02:40:37.641Z,35.00
2023-03-06T02:41:41.015Z,33.70
2023-03-06T02:42:50.294Z,34.60
2023-03-06T02:43:53.325Z,31.70
2023-03-06T02:44:59.308Z,35.60
2023-03-06T02:46:02.849Z,35.90
2023-03-06T02:47:05.906Z,36.70
2023-03-06T02:48:09.444Z,39.60
2023-03-06T02:49:12.397Z,38.90
2023-03-06T02:50:15.363Z,35.50
2023-03-06T02:51:18.185Z,33.60
2023-03-06T02:52:21.262Z,34.10
2023-03-06T02:53:24.987Z,33.80
2023-03-06T02:54:27.984Z,34.20
2023-03-06T02:55:30.951Z,35.10
2023-03-06T02:56:33.889Z,33.80
2023-03-06T02:57:36.788Z,36.70
2023-03-06T02:58:39.644Z,34.00
2023-03-06T02:59:42.609Z,35.70
2023-03-06T03:00:47.235Z,33.90
2023-03-06T03:01:50.247Z,34.80
2023-03-06T03:02:53.984Z,34.80
2023-03-06T03:03:56.923Z,34.80
2023-03-06T03:05:00.046Z,33.10
2023-03-06T03:06:07.043Z,36.40
2023-03-06T03:07:10.309Z,39.50
2023-03-06T03:08:14.048Z,34.80
2023-03-06T03:09:16.934Z,38.20
2023-03-06T03:10:21.006Z,37.60
2023-03-06T03:11:23.950Z,33.10
2023-03-06T03:12:28.722Z,38.00
2023-03-06T03:13:32.467Z,37.40
2023-03-06T03:14:36.707Z,32.90
2023-03-06T03:15:40.019Z,36.00
2023-03-06T03:16:42.925Z,40.10
2023-03-06T03:17:45.819Z,35.30
2023-03-06T03:18:50.355Z,35.00
2023-03-06T03:19:55.310Z,33.40
2023-03-06T03:21:03.127Z,38.00
2023-03-06T03:22:06.542Z,35.10
2023-03-06T03:23:09.536Z,32.80
2023-03-06T03:24:12.445Z,35.50
2023-03-06T03:25:15.368Z,34.70
2023-03-06T03:26:21.630Z,37.10
2023-03-06T03:27:43.738Z,37.50
2023-03-06T03:28:46.867Z,31.00
2023-03-06T03:29:51.850Z,40.30
2023-03-06T03:30:54.952Z,35.10
2023-03-06T03:31:57.931Z,35.60
2023-03-06T03:33:01.301Z,39.80
2023-03-06T03:34:04.577Z,33.40
2023-03-06T03:35:11.238Z,33.20
2023-03-06T03:36:14.177Z,38.10
2023-03-06T03:37:19.032Z,35.20
2023-03-06T03:38:21.932Z,38.90
2023-03-06T03:39:25.436Z,36.50
2023-03-06T03:40:28.566Z,39.30
2023-03-06T03:41:36.870Z,37.30
2023-03-06T03:42:41.714Z,34.30
2023-03-06T03:43:45.245Z,37.40
2023-03-06T03:44:48.267Z,34.90
2023-03-06T03:45:53.669Z,39.30
2023-03-06T03:47:00.098Z,33.80
2023-03-06T03:48:02.989Z,36.50
2023-03-06T03:49:06.286Z,34.60
2023-03-06T03:50:10.211Z,36.90
2023-03-06T03:51:16.601Z,38.30
2023-03-06T03:52:22.729Z,36.60
2023-03-06T03:53:25.624Z,37.90
2023-03-06T03:54:28.999Z,40.10
2023-03-06T03:55:32.466Z,34.50
2023-03-06T03:56:36.017Z,38.70
2023-03-06T03:57:43.865Z,41.00
2023-03-06T03:58:46.971Z,34.40
2023-03-06T03:59:50.015Z,33.50
2023-03-06T04:01:00.115Z,37.00
2023-03-06T04:02:05.023Z,34.90
2023-03-06T04:03:11.420Z,36.00
2023-03-06T04:04:17.865Z,39.30
2023-03-06T04:05:21.208Z,38.80
2023-03-06T04:06:24.744Z,39.20
2023-03-06T04:07:28.001Z,37.90
2023-03-06T04:08:31.497Z,35.50
2023-03-06T04:09:34.485Z,44.00
2023-03-06T04:10:39.475Z,37.80
2023-03-06T04:11:43.131Z,35.00
2023-03-06T04:12:46.018Z,37.30
2023-03-06T04:13:49.458Z,39.70
2023-03-06T04:14:54.531Z,38.40
2023-03-06T04:15:59.771Z,37.60
2023-03-06T04:17:02.822Z,38.70
2023-03-06T04:18:05.775Z,38.50
2023-03-06T04:19:08.822Z,39.50
2023-03-06T04:20:12.169Z,39.50
2023-03-06T04:21:15.125Z,40.50
2023-03-06T04:22:18.355Z,42.90
2023-03-06T04:23:22.958Z,41.40
2023-03-06T04:24:26.147Z,38.50
2023-03-06T04:25:29.059Z,39.20
2023-03-06T04:26:32.077Z,41.00
2023-03-06T04:27:35.449Z,41.60
2023-03-06T04:28:38.485Z,44.40
2023-03-06T04:29:41.600Z,38.80
2023-03-06T04:30:44.586Z,42.60
2023-03-06T04:31:47.657Z,40.70
2023-03-06T04:32:50.809Z,41.20
2023-03-06T04:33:53.785Z,43.90
2023-03-06T04:34:56.882Z,39.30
2023-03-06T04:36:00.352Z,39.40
2023-03-06T04:37:05.519Z,39.20
2023-03-06T04:38:08.493Z,41.40
2023-03-06T04:39:13.352Z,42.20
2023-03-06T04:40:27.511Z,38.80
2023-03-06T04:41:30.832Z,39.30
2023-03-06T04:42:33.882Z,39.30
2023-03-06T04:43:36.735Z,41.00
2023-03-06T04:44:39.612Z,37.80
2023-03-06T04:45:42.582Z,41.50
2023-03-06T04:46:45.563Z,41.10
2023-03-06T04:47:48.609Z,44.60
2023-03-06T04:48:51.783Z,39.80
2023-03-06T04:49:54.769Z,40.10
2023-03-06T04:50:57.650Z,44.10
2023-03-06T04:52:00.572Z,41.00
2023-03-06T04:53:04.807Z,40.00
2023-03-06T04:54:07.774Z,41.10
2023-03-06T04:55:13.767Z,41.50
2023-03-06T04:56:16.679Z,42.00
2023-03-06T04:57:19.651Z,45.20
2023-03-06T04:58:22.539Z,41.30
2023-03-06T04:59:25.394Z,39.40
2023-03-06T05:00:30.676Z,43.10
2023-03-06T05:01:33.537Z,41.20
2023-03-06T05:02:36.928Z,40.50
2023-03-06T05:03:39.894Z,43.10
2023-03-06T05:04:42.872Z,40.20
2023-03-06T05:05:45.751Z,35.90
2023-03-06T05:06:48.658Z,46.50
2023-03-06T05:07:52.094Z,41.50
2023-03-06T05:08:55.047Z,41.40
2023-03-06T05:09:57.909Z,43.60
2023-03-06T05:11:02.438Z,41.20
2023-03-06T05:12:05.792Z,38.20
2023-03-06T05:13:08.820Z,44.50
2023-03-06T05:14:11.638Z,39.60
2023-03-06T05:15:15.160Z,38.60
2023-03-06T05:16:18.205Z,44.20
2023-03-06T05:17:21.238Z,40.20
2023-03-06T05:18:24.068Z,44.10
2023-03-06T05:19:26.959Z,42.60
2023-03-06T05:20:29.920Z,46.70
2023-03-06T05:21:32.819Z,44.40
2023-03-06T05:22:36.034Z,40.40
2023-03-06T05:23:38.942Z,45.10
2023-03-06T05:24:42.262Z,40.80
2023-03-06T05:25:45.145Z,47.40
2023-03-06T05:26:47.973Z,44.90
2023-03-06T05:27:50.907Z,49.40
2023-03-06T05:28:55.352Z,44.40
2023-03-06T05:29:58.377Z,42.10
2023-03-06T05:31:03.408Z,48.90
2023-03-06T05:32:07.333Z,42.20
2023-03-06T05:33:10.227Z,50.10
2023-03-06T05:34:16.678Z,41.20
2023-03-06T05:35:22.912Z,44.60
2023-03-06T05:36:25.858Z,46.00
2023-03-06T05:37:28.772Z,44.40
2023-03-06T05:38:32.456Z,44.60
2023-03-06T05:39:35.331Z,45.60
2023-03-06T05:40:41.344Z,45.30
2023-03-06T05:41:44.355Z,46.30
2023-03-06T05:42:47.185Z,43.40
2023-03-06T05:43:50.356Z,43.80
2023-03-06T05:44:53.222Z,41.30
2023-03-06T05:46:07.112Z,43.40
2023-03-06T05:47:11.328Z,40.00
2023-03-06T05:48:14.267Z,43.10
2023-03-06T05:49:17.413Z,45.70
2023-03-06T05:50:20.421Z,40.50
2023-03-06T05:51:24.513Z,43.00
2023-03-06T05:52:27.360Z,46.20
2023-03-06T05:53:30.438Z,40.80
2023-03-06T05:54:34.623Z,44.40
2023-03-06T05:55:37.458Z,43.30
2023-03-06T05:56:42.737Z,45.00
2023-03-06T05:57:45.739Z,45.40
2023-03-06T05:58:49.117Z,42.20
2023-03-06T05:59:52.062Z,41.70
2023-03-06T06:00:55.347Z,42.20
2023-03-06T06:01:58.333Z,42.70
2023-03-06T06:03:02.309Z,43.20
2023-03-06T06:04:05.368Z,43.80
2023-03-06T06:05:09.816Z,43.70
2023-03-06T06:06:15.670Z,38.90
2023-03-06T06:07:18.687Z,46.90
2023-03-06T06:08:22.003Z,38.70
2023-03-06T06:09:26.000Z,40.50
2023-03-06T06:10:28.856Z,37.60
2023-03-06T06:11:32.005Z,41.80
2023-03-06T06:12:35.200Z,37.50
2023-03-06T06:13:38.731Z,39.50
2023-03-06T06:14:41.585Z,36.90
2023-03-06T06:15:44.715Z,36.10
2023-03-06T06:16:47.681Z,40.60
2023-03-06T06:17:50.532Z,34.80
2023-03-06T06:18:53.386Z,35.30
2023-03-06T06:19:56.252Z,36.10
2023-03-06T06:20:59.095Z,37.30
2023-03-06T06:22:03.866Z,41.10
2023-03-06T06:23:06.830Z,35.50
2023-03-06T06:24:09.687Z,35.90
2023-03-06T06:25:12.782Z,35.80
2023-03-06T06:26:15.732Z,33.20
2023-03-06T06:27:18.619Z,33.60
2023-03-06T06:28:21.474Z,35.00
2023-03-06T06:29:25.564Z,34.10
2023-03-06T06:30:28.401Z,38.70
2023-03-06T06:31:31.473Z,34.60
2023-03-06T06:32:34.766Z,34.10
2023-03-06T06:33:38.284Z,32.10
2023-03-06T06:34:41.092Z,30.80
2023-03-06T06:35:43.978Z,32.80
2023-03-06T06:36:47.554Z,32.40
2023-03-06T06:37:50.828Z,31.20
2023-03-06T06:38:53.700Z,30.80
2023-03-06T06:39:56.698Z,30.40
2023-03-06T06:41:33.016Z,29.10
2023-03-06T06:42:36.996Z,30.30
2023-03-06T06:43:42.017Z,32.50
2023-03-06T06:44:44.952Z,31.20
2023-03-06T06:45:49.588Z,26.60
2023-03-06T06:48:17.797Z,33.10
2023-03-06T06:49:20.944Z,30.10
2023-03-06T06:50:23.804Z,27.30
2023-03-06T06:51:26.737Z,27.20
2023-03-06T06:52:29.606Z,25.20
2023-03-06T06:53:32.597Z,30.70
2023-03-06T06:54:35.480Z,34.90
2023-03-06T06:55:38.965Z,29.90
2023-03-06T06:56:41.793Z,30.80
2023-03-06T06:57:44.687Z,27.70
2023-03-06T06:58:47.657Z,27.30
2023-03-06T06:59:52.577Z,28.50
2023-03-06T07:00:56.767Z,27.70
2023-03-06T07:02:01.339Z,30.50
2023-03-06T07:03:04.157Z,32.10
2023-03-06T07:04:07.084Z,24.60
2023-03-06T07:05:10.328Z,28.10
2023-03-06T07:06:13.544Z,28.20
2023-03-06T07:07:16.744Z,27.80
2023-03-06T07:08:19.621Z,31.80
2023-03-06T07:09:22.672Z,25.50
2023-03-06T07:10:25.631Z,26.90
2023-03-06T07:11:28.716Z,30.10
2023-03-06T07:12:33.356Z,29.20
2023-03-06T07:13:36.373Z,24.90
2023-03-06T07:14:41.444Z,27.70
2023-03-06T07:15:44.439Z,32.10
2023-03-06T07:16:47.373Z,27.00
2023-03-06T07:17:50.492Z,28.40
2023-03-06T07:18:53.357Z,29.20
2023-03-06T07:19:56.293Z,25.60
2023-03-06T07:21:01.258Z,28.50
2023-03-06T07:22:04.701Z,26.10
2023-03-06T07:23:11.305Z,24.60
2023-03-06T07:24:14.231Z,28.80
2023-03-06T07:25:17.167Z,28.60
2023-03-06T07:26:20.020Z,27.80
2023-03-06T07:27:23.971Z,24.60
2023-03-06T07:28:27.399Z,23.50
2023-03-06T07:29:32.958Z,28.50
2023-03-06T07:30:35.900Z,32.00
2023-03-06T07:31:39.344Z,27.60
2023-03-06T07:32:42.267Z,25.70
2023-03-06T07:33:45.121Z,25.80
2023-03-06T07:34:48.140Z,26.90
2023-03-06T07:35:51.169Z,27.20
2023-03-06T07:36:54.440Z,26.70
2023-03-06T07:37:57.843Z,25.40
2023-03-06T07:39:00.731Z,23.70
2023-03-06T07:40:05.942Z,23.70
2023-03-06T07:41:13.728Z,26.60
2023-03-06T07:42:17.048Z,27.60
2023-03-06T07:43:23.952Z,27.30
2023-03-06T07:44:37.565Z,24.50
2023-03-06T07:45:40.537Z,23.60
2023-03-06T07:46:43.454Z,28.20
2023-03-06T07:47:46.393Z,26.40
2023-03-06T07:48:49.287Z,29.60
2023-03-06T07:49:56.477Z,26.40
2023-03-06T07:51:05.356Z,27.40
2023-03-06T07:52:08.217Z,23.40
2023-03-06T07:53:11.643Z,22.60
2023-03-06T07:54:14.621Z,26.60
2023-03-06T07:55:17.961Z,19.50
2023-03-06T07:56:21.486Z,23.60
2023-03-06T07:57:24.629Z,23.10
2023-03-06T07:58:27.708Z,29.20
2023-03-06T07:59:30.610Z,24.80
2023-03-06T08:00:33.583Z,24.40
2023-03-06T08:01:39.404Z,25.40
2023-03-06T08:02:43.255Z,24.20
2023-03-06T08:03:47.437Z,22.70
2023-03-06T08:04:56.589Z,36.80
2023-03-06T08:06:13.811Z,29.10
2023-03-06T08:07:16.778Z,24.40
2023-03-06T08:08:19.972Z,28.40
2023-03-06T08:09:23.071Z,26.70
2023-03-06T08:10:26.016Z,23.70
2023-03-06T08:11:30.735Z,26.80
2023-03-06T08:12:33.954Z,24.10
2023-03-06T08:13:38.528Z,31.40
2023-03-06T08:14:41.922Z,27.50
2023-03-06T08:15:48.977Z,24.10
2023-03-06T08:16:52.172Z,24.80
2023-03-06T08:17:55.076Z,25.80
2023-03-06T08:18:58.217Z,25.60
2023-03-06T08:20:01.089Z,22.60
2023-03-06T08:21:05.303Z,25.10
2023-03-06T08:22:08.199Z,23.40
2023-03-06T08:23:12.023Z,27.60
2023-03-06T08:24:16.747Z,21.40
2023-03-06T08:25:20.164Z,21.60
2023-03-06T08:26:26.780Z,22.50
2023-03-06T08:27:32.204Z,18.90
2023-03-06T08:28:35.503Z,17.30
2023-03-06T08:29:38.359Z,25.20
2023-03-06T08:30:41.534Z,22.80
2023-03-06T08:31:45.677Z,19.50
2023-03-06T08:32:48.785Z,20.70
2023-03-06T08:33:52.028Z,19.60
2023-03-06T08:34:54.891Z,22.20
2023-03-06T08:35:57.774Z,17.70
2023-03-06T08:37:00.688Z,19.90
2023-03-06T08:38:03.563Z,22.80
2023-03-06T08:39:07.248Z,14.70
2023-03-06T08:40:11.041Z,15.90
2023-03-06T08:41:14.062Z,18.00
2023-03-06T08:42:17.012Z,19.50
2023-03-06T08:43:19.931Z,16.90
2023-03-06T08:44:22.794Z,17.40
2023-03-06T08:45:25.662Z,15.70
2023-03-06T08:46:30.066Z,18.10
2023-03-06T08:47:35.309Z,17.10
2023-03-06T08:48:38.741Z,18.10
2023-03-06T08:49:41.680Z,19.00
2023-03-06T08:50:44.563Z,17.10
2023-03-06T08:51:47.862Z,15.60
2023-03-06T08:52:50.780Z,17.30
2023-03-06T08:53:53.739Z,14.60
2023-03-06T08:54:58.100Z,14.40
2023-03-06T08:56:01.106Z,18.00
2023-03-06T08:57:04.063Z,12.20
2023-03-06T08:58:07.345Z,15.50
2023-03-06T08:59:12.040Z,17.10
2023-03-06T09:00:15.460Z,14.70
2023-03-06T09:01:21.481Z,15.70
2023-03-06T09:02:24.488Z,16.80
2023-03-06T09:03:27.556Z,14.10
2023-03-06T09:04:31.645Z,20.70
2023-03-06T09:05:34.667Z,16.50
2023-03-06T09:06:41.015Z,17.80
2023-03-06T09:07:43.983Z,16.40
2023-03-06T09:08:46.829Z,17.60
2023-03-06T09:09:49.734Z,16.00
2023-03-06T09:10:52.582Z,17.30
2023-03-06T09:11:56.397Z,15.90
2023-03-06T09:12:59.421Z,17.30
2023-03-06T09:14:02.947Z,15.30
2023-03-06T09:15:06.866Z,13.70
2023-03-06T09:16:11.638Z,16.20
2023-03-06T09:17:14.733Z,14.40
2023-03-06T09:18:17.644Z,17.20
2023-03-06T09:19:20.784Z,14.90
2023-03-06T09:20:23.729Z,13.60
2023-03-06T09:21:28.271Z,11.80
2023-03-06T09:22:31.714Z,13.90
2023-03-06T09:23:35.907Z,15.90
2023-03-06T09:24:38.866Z,14.70
2023-03-06T09:25:41.751Z,13.60
2023-03-06T09:26:46.706Z,14.80
2023-03-06T09:28:01.928Z,13.40
2023-03-06T09:29:12.690Z,14.00
2023-03-06T09:30:16.361Z,14.50
2023-03-06T09:31:20.242Z,15.50
2023-03-06T09:32:24.732Z,18.30
2023-03-06T09:33:28.882Z,16.90
2023-03-06T09:34:31.862Z,16.80
2023-03-06T09:35:35.110Z,16.40
2023-03-06T09:36:53.716Z,19.40
2023-03-06T09:37:59.198Z,18.50
2023-03-06T09:39:02.061Z,17.10
2023-03-06T09:40:06.542Z,24.50
2023-03-06T09:41:31.104Z,17.60
2023-03-06T09:42:36.091Z,17.30
2023-03-06T09:43:51.121Z,17.80
2023-03-06T09:44:58.719Z,17.20
2023-03-06T09:46:17.880Z,19.80
2023-03-06T09:47:40.859Z,18.00
2023-03-06T09:48:46.416Z,18.10
2023-03-06T09:49:58.633Z,18.90
2023-03-06T09:51:10.841Z,21.90
2023-03-06T09:52:32.074Z,17.20
2023-03-06T09:54:01.382Z,18.70
2023-03-06T09:55:18.602Z,16.90
2023-03-06T09:56:24.575Z,18.40
2023-03-06T09:57:32.224Z,13.10
2023-03-06T09:58:48.906Z,22.00
2023-03-06T09:59:56.205Z,17.80
2023-03-06T10:01:04.071Z,16.80
2023-03-06T10:02:18.343Z,17.70
2023-03-06T10:03:45.965Z,15.70
2023-03-06T10:04:56.540Z,15.20
2023-03-06T10:06:18.143Z,18.30
2023-03-06T10:07:26.293Z,17.10
2023-03-06T10:08:39.420Z,11.90
2023-03-06T10:09:52.247Z,12.90
2023-03-06T10:11:02.366Z,14.30
2023-03-06T10:12:17.405Z,11.40
2023-03-06T10:13:32.620Z,12.40
2023-03-06T10:14:40.232Z,10.00
2023-03-06T10:15:47.306Z,11.20
2023-03-06T10:16:50.353Z,12.10
2023-03-06T10:17:53.686Z,12.50
2023-03-06T10:19:01.678Z,10.00
2023-03-06T10:20:16.518Z,10.50
2023-03-06T10:21:37.982Z,14.50
2023-03-06T10:23:00.750Z,12.90
2023-03-06T10:24:19.682Z,15.90
2023-03-06T10:25:36.613Z,13.90
2023-03-06T10:27:05.898Z,13.50
2023-03-06T10:28:17.346Z,13.90
2023-03-06T10:29:35.904Z,16.20
2023-03-06T10:30:43.161Z,19.10
2023-03-06T10:31:52.933Z,15.50
2023-03-06T10:34:21.205Z,16.70
2023-03-06T10:35:37.593Z,17.40
2023-03-06T10:36:40.503Z,17.60
2023-03-06T10:37:43.428Z,18.00
2023-03-06T10:38:48.750Z,15.60
2023-03-06T10:40:01.893Z,16.10
2023-03-06T10:41:10.794Z,14.80
2023-03-06T10:42:13.715Z,13.60
2023-03-06T10:43:17.314Z,13.30
2023-03-06T10:44:21.816Z,11.70
2023-03-06T10:45:24.742Z,14.50
2023-03-06T10:46:48.726Z,14.40
2023-03-06T10:48:11.989Z,17.20
2023-03-06T10:49:26.203Z,12.00
2023-03-06T10:50:31.542Z,14.70
2023-03-06T10:51:35.641Z,14.60
2023-03-06T10:52:38.647Z,14.10
2023-03-06T10:54:00.301Z,14.30
2023-03-06T10:55:30.880Z,14.00
2023-03-06T10:56:41.888Z,17.10
2023-03-06T10:57:44.707Z,19.50
2023-03-06T10:58:47.540Z,16.00
2023-03-06T10:59:55.636Z,18.30
2023-03-06T11:01:07.482Z,15.70
2023-03-06T11:02:30.091Z,20.20
2023-03-06T11:03:34.836Z,20.30
2023-03-06T11:04:39.639Z,15.00
2023-03-06T11:06:05.412Z,14.10
2023-03-06T11:07:20.258Z,10.30
2023-03-06T11:08:24.054Z,13.30
2023-03-06T11:09:26.921Z,14.00
2023-03-06T11:10:31.877Z,8.00
2023-03-06T11:11:37.742Z,9.90
2023-03-06T11:12:42.708Z,10.50
2023-03-06T11:13:57.127Z,9.10
2023-03-06T11:15:13.386Z,12.60
2023-03-06T11:16:25.876Z,8.10
2023-03-06T11:17:30.964Z,7.20
2023-03-06T11:18:39.184Z,11.40
2023-03-06T11:19:42.172Z,8.10
2023-03-06T11:20:51.951Z,7.60
2023-03-06T11:22:16.374Z,9.80
2023-03-06T11:23:27.128Z,10.00
2023-03-06T11:24:40.618Z,10.30
2023-03-06T11:25:51.263Z,9.00
2023-03-06T11:27:01.935Z,13.40
2023-03-06T11:28:18.387Z,13.60
2023-03-06T11:29:36.304Z,13.30
2023-03-06T11:30:46.327Z,12.40
2023-03-06T11:31:59.576Z,14.60
2023-03-06T11:33:11.645Z,14.70
2023-03-06T11:34:44.877Z,14.50
2023-03-06T11:36:03.091Z,14.10
2023-03-06T11:37:31.963Z,14.50
2023-03-06T11:38:52.664Z,14.60
2023-03-06T11:40:10.588Z,15.80
2023-03-06T11:41:22.525Z,12.40
2023-03-06T11:42:27.575Z,14.80
2023-03-06T11:43:51.165Z,13.60
2023-03-06T11:45:27.849Z,14.80
2023-03-06T11:46:42.402Z,12.60
2023-03-06T11:47:54.710Z,12.60
2023-03-06T11:49:30.954Z,13.40
2023-03-06T11:50:37.679Z,13.80
2023-03-06T11:51:48.103Z,13.10
2023-03-06T11:52:57.255Z,17.40
2023-03-06T11:54:00.939Z,15.40
2023-03-06T11:55:03.933Z,14.60
2023-03-06T11:56:22.912Z,16.70
2023-03-06T11:57:40.570Z,16.30
2023-03-06T11:59:04.788Z,17.90
2023-03-06T12:00:13.962Z,16.50
2023-03-06T12:01:27.375Z,15.50
2023-03-06T12:02:47.690Z,15.90
2023-03-06T12:04:12.476Z,14.40
2023-03-06T12:05:37.588Z,13.40
2023-03-06T12:07:01.103Z,15.60
2023-03-06T12:08:22.076Z,17.00
2023-03-06T12:09:45.657Z,17.00
2023-03-06T12:10:53.823Z,18.40
2023-03-06T12:12:47.569Z,17.60
2023-03-06T12:14:05.738Z,17.60
2023-03-06T12:15:23.347Z,16.30
2023-03-06T12:16:34.989Z,17.90
2023-03-06T12:17:50.277Z,18.10
2023-03-06T12:19:14.392Z,17.10
2023-03-06T12:20:31.213Z,17.80
2023-03-06T12:21:56.377Z,17.30
2023-03-06T12:23:15.997Z,19.50
2023-03-06T12:24:31.513Z,16.50
2023-03-06T12:25:38.165Z,18.30
2023-03-06T12:27:29.326Z,17.50
2023-03-06T12:29:04.334Z,19.40
2023-03-06T12:30:33.906Z,19.30
2023-03-06T12:31:56.089Z,20.50
2023-03-06T12:33:17.764Z,18.70
2023-03-06T12:34:35.675Z,23.90
2023-03-06T12:35:47.449Z,20.90
2023-03-06T12:37:09.244Z,23.40
2023-03-06T12:38:35.322Z,23.40
2023-03-06T12:39:54.166Z,19.40
2023-03-06T12:41:26.378Z,22.20
2023-03-06T12:42:31.988Z,20.00
2023-03-06T12:43:53.479Z,23.70
2023-03-06T12:45:14.498Z,21.80
2023-03-06T12:46:25.641Z,22.00
2023-03-06T12:47:29.281Z,22.20
2023-03-06T12:48:36.396Z,24.60
2023-03-06T12:49:43.546Z,19.80
2023-03-06T12:50:47.649Z,20.50
2023-03-06T12:51:52.147Z,25.20
2023-03-06T12:52:58.694Z,23.60
2023-03-06T12:54:03.274Z,25.60
2023-03-06T12:55:07.768Z,22.00
2023-03-06T12:56:15.982Z,22.80
2023-03-06T12:57:19.180Z,20.40
2023-03-06T12:58:31.077Z,26.60
2023-03-06T12:59:44.293Z,24.40
2023-03-06T13:01:09.855Z,25.20
2023-03-06T13:02:34.616Z,25.20
2023-03-06T13:04:02.563Z,25.60
2023-03-06T13:05:30.242Z,25.90
2023-03-06T13:06:51.264Z,27.90
2023-03-06T13:07:55.709Z,26.90
2023-03-06T13:09:20.398Z,24.20
2023-03-06T13:10:31.968Z,24.60
2023-03-06T13:12:13.105Z,23.60
2023-03-06T13:13:31.486Z,24.00
2023-03-06T13:14:54.585Z,25.90
2023-03-06T13:16:03.525Z,24.20
2023-03-06T13:17:26.825Z,24.40
2023-03-06T13:18:32.641Z,26.80
2023-03-06T13:19:35.600Z,24.40
2023-03-06T13:20:43.999Z,25.70
2023-03-06T13:21:59.563Z,26.10
2023-03-06T13:23:39.116Z,27.70
2023-03-06T13:25:48.754Z,26.30
2023-03-06T13:26:54.293Z,25.10
2023-03-06T13:27:57.036Z,25.70
2023-03-06T13:29:00.006Z,26.40
2023-03-06T13:30:41.133Z,23.50
2023-03-06T13:31:44.029Z,28.10
2023-03-06T13:32:47.202Z,28.60
2023-03-06T13:33:52.992Z,26.60
2023-03-06T13:34:56.342Z,27.00
2023-03-06T13:36:19.347Z,28.50
2023-03-06T13:37:25.066Z,28.60
2023-03-06T13:38:32.366Z,27.50
2023-03-06T13:40:13.773Z,30.90
2023-03-06T13:41:22.647Z,30.20
2023-03-06T13:42:32.694Z,30.70
2023-03-06T13:43:43.136Z,29.50
2023-03-06T13:44:50.864Z,31.00
2023-03-06T13:45:54.180Z,28.30
2023-03-06T13:47:07.464Z,28.90
2023-03-06T13:48:43.223Z,27.70
2023-03-06T13:49:48.806Z,30.70
2023-03-06T13:50:52.830Z,29.00
2023-03-06T13:51:55.659Z,29.40
2023-03-06T13:53:16.414Z,31.00
2023-03-06T13:54:37.748Z,27.80
2023-03-06T13:55:49.556Z,29.00
2023-03-06T13:57:10.325Z,27.60
2023-03-06T13:58:31.552Z,28.40
2023-03-06T14:00:08.663Z,32.00
2023-03-06T14:01:20.929Z,28.50
2023-03-06T14:02:51.736Z,31.10
2023-03-06T14:04:22.989Z,31.70
2023-03-06T14:05:41.315Z,28.80
2023-03-06T14:07:06.200Z,33.80
2023-03-06T14:08:15.338Z,30.90
2023-03-06T14:09:34.364Z,33.20
2023-03-06T14:10:38.847Z,30.50
2023-03-06T14:11:50.498Z,33.10
2023-03-06T14:13:02.791Z,33.20
2023-03-06T14:14:05.670Z,33.00
2023-03-06T14:15:18.447Z,31.80
2023-03-06T14:16:30.692Z,32.10
2023-03-06T14:17:39.240Z,34.60
2023-03-06T14:18:46.276Z,37.30
2023-03-06T14:19:49.483Z,33.10
2023-03-06T14:21:01.835Z,29.60
2023-03-06T14:22:06.077Z,30.70
2023-03-06T14:23:21.009Z,38.00
2023-03-06T14:24:36.829Z,32.10
2023-03-06T14:25:40.449Z,33.60
2023-03-06T14:26:46.997Z,28.90
2023-03-06T14:27:52.607Z,30.60
2023-03-06T14:28:58.357Z,30.80
2023-03-06T14:30:11.392Z,30.60
2023-03-06T14:31:20.266Z,30.90
2023-03-06T14:32:23.681Z,32.00
2023-03-06T14:33:35.014Z,36.10